Accueil
METAR-TAF:

METAR-TAF

Aéroports :

Kerteh, Malaisie

latitude: 04-32-15N, longitude: 103-25-36E, altitude: 5 m

Observation

Le bulletin a été fait il y a 51 minutes, à 14:00 UTC
Vent calme
Température 25°C
Humidité 94%
Pression 1010 hPa

METAR: WMKE 261400Z AUTO 00000KT //// // ////// 25/24 Q1010

Heure: 22:51 (14:51 UTC)

Prévision

Le bulletin a été fait il y a 3 heures et 51 minutes, à 11:00 UTC
Prévision valable du 26 à 12 UTC au 27 à 12 UTC
Vent 3 kt de direction variable
Visibilité 10 km ou plus
Nuages épars à une hauteur de 1500 ft
Evoluant progressivement
du 27 à 01 UTC au 27 à 02 UTC
Vent 6 kt de est/nord-est

TAF: WMKE 261100Z 2612/2712 VRB03KT 9999 SCT015 BECMG 2701/2702 06006KT

Observations et prévisions météorologiques de plus de 4000 aéroports (messages METAR et TAF).

Les stations disponibles sont représentées par des disques jaunes et rouges sur la carte.

Passer la souris dessus pour voir le nom de la station.

Cliquer dessus pour voir les observations et prévisions météorologiques.

Pour changer de carte: cliquez sur les boutons verts avec une croix noire pour zoomer, sur le bouton vert avec un tiret pour effectuer un zoom arrière, ou sur les flèches vertes pour les cartes adjacentes.


METAR-TAF: